Honolulu, HI

10:54 PM HST on July 30, 2016 (GMT -1000)
Nuuanu | | Change Station

Elev 374 ft 21.33 °N, 157.84 °W | Updated 7 minutes ago

Partly Cloudy
Partly Cloudy
76.1 °F
Feels Like 78 °F
N
2.2
Wind Variable Wind from NNW

Today
High -- | Low -- °F
--% Chance of Precip.
Yesterday
High -- | Low -- °F
Precip. -- in
Pressure 29.99 in
Visibility 10.0 miles
Clouds Few 3200 ft
Few 5000 ft
Heat Index 78 °F
Dew Point 66 °F
Humidity 71%
Rainfall 0.14 in
Snow Depth Not available.
6:04 AM 7:10 PM
Waning Crescent, 8% visible
METAR PHNL 310753Z 06010KT 10SM FEW032 FEW050 27/19 A2999 RMK AO2 SLP153 T02670194
Pressure 29.99 in
Visibility 10.0 miles
Clouds Few 3200 ft
Few 5000 ft
Heat Index 78 °F
Dew Point 66 °F
Humidity 71%
Rainfall 0.14 in
Snow Depth Not available.
6:04 AM 7:10 PM
Waning Crescent, 8% visible
METAR PHNL 310753Z 06010KT 10SM FEW032 FEW050 27/19 A2999 RMK AO2 SLP153 T02670194

10-Day Weather Forecast

Almanac

Astronomy

Jul. 30, 2016 Rise Set
Actual Time
Civil Twilight
Nautical Twilight
Astronomical Twilight
Moon
Length of Visible Light
Length of Day
Tomorrow will be .
, % of the Moon is Illuminated

Today's Extremes

State Highs State Lows

Community

WunderPhotos

Upload Photos

1,928,768 photos uploaded!

WunderBlog® & News

Nearby

Air Quality

  Air Quality AQ Index Pollutant
Not available.

Snow Depth

Station Depth Elevation

Earthquake Activity

City Distance Mag. Time & Date
Minimum magnitude displayed is 2.5.

Coastal Water Temperatures

Place Temperature

Stations

Nearby Weather Stations

Station Location Temp. Windchill Dew Point Humidity Wind Precip. Elev Updated Type
                   

Watches & Warnings

There are currently no watches in effect.